createdAt,value
2017-08-31T00:00:05.558Z,59.50
2017-08-31T00:02:33.655Z,60.40
2017-08-31T00:05:01.760Z,61.50
2017-08-31T00:07:29.847Z,62.30
2017-08-31T00:09:57.951Z,62.20
2017-08-31T00:12:26.049Z,61.10
2017-08-31T00:14:54.123Z,61.20
2017-08-31T00:17:22.224Z,61.80
2017-08-31T00:19:50.312Z,61.50
2017-08-31T00:22:18.407Z,62.50
2017-08-31T00:24:46.496Z,64.20
2017-08-31T00:27:14.600Z,64.40
2017-08-31T00:29:42.685Z,65.10
2017-08-31T00:32:10.776Z,64.70
2017-08-31T00:34:38.868Z,65.20
2017-08-31T00:37:06.960Z,66.00
2017-08-31T00:39:35.035Z,65.50
2017-08-31T00:42:03.125Z,66.20
2017-08-31T00:44:31.207Z,64.80
2017-08-31T00:46:59.295Z,65.40
2017-08-31T00:49:27.531Z,65.60
2017-08-31T00:51:55.603Z,65.30
2017-08-31T00:54:23.716Z,66.40
2017-08-31T00:56:51.806Z,66.80
2017-08-31T00:59:19.910Z,66.00
2017-08-31T01:01:47.990Z,66.00
2017-08-31T01:04:16.107Z,65.60
2017-08-31T01:06:44.186Z,65.00
2017-08-31T01:09:12.283Z,64.40
2017-08-31T01:11:40.376Z,65.40
2017-08-31T01:14:08.460Z,65.20
2017-08-31T01:16:36.544Z,66.50
2017-08-31T01:19:04.617Z,66.90
2017-08-31T01:21:32.715Z,67.00
2017-08-31T01:24:00.803Z,67.60
2017-08-31T01:26:28.903Z,67.60
2017-08-31T01:28:56.976Z,67.40
2017-08-31T01:31:25.065Z,66.50
2017-08-31T01:33:53.159Z,66.00
2017-08-31T01:36:21.259Z,67.10
2017-08-31T01:38:49.347Z,65.80
2017-08-31T01:41:17.442Z,65.60
2017-08-31T01:43:45.537Z,65.40
2017-08-31T01:46:13.648Z,65.20
2017-08-31T01:48:41.728Z,65.10
2017-08-31T01:51:09.812Z,64.00
2017-08-31T01:53:37.913Z,64.00
2017-08-31T01:56:06.002Z,64.10
2017-08-31T01:58:34.108Z,64.50
2017-08-31T02:01:02.197Z,64.80
2017-08-31T02:03:30.302Z,65.00
2017-08-31T02:05:58.368Z,64.20
2017-08-31T02:08:26.527Z,64.10
2017-08-31T02:10:54.615Z,65.10
2017-08-31T02:13:22.701Z,64.70
2017-08-31T02:15:50.820Z,65.40
2017-08-31T02:18:18.928Z,65.70
2017-08-31T02:20:47.015Z,64.40
2017-08-31T02:23:15.103Z,64.20
2017-08-31T02:25:43.416Z,64.70
2017-08-31T02:28:11.518Z,63.30
2017-08-31T02:30:39.609Z,63.10
2017-08-31T02:33:07.692Z,63.50
2017-08-31T02:35:35.790Z,63.00
2017-08-31T02:38:03.879Z,63.90
2017-08-31T02:40:31.972Z,64.90
2017-08-31T02:43:00.053Z,65.70
2017-08-31T02:45:28.161Z,65.50
2017-08-31T02:47:56.228Z,66.40
2017-08-31T02:50:24.316Z,66.30
2017-08-31T02:52:52.419Z,65.60
2017-08-31T02:55:20.504Z,64.90
2017-08-31T02:57:48.601Z,64.80
2017-08-31T03:00:16.680Z,63.80
2017-08-31T03:02:44.776Z,63.70
2017-08-31T03:05:12.868Z,64.20
2017-08-31T03:07:41.051Z,64.40
2017-08-31T03:10:09.136Z,65.30
2017-08-31T03:12:37.247Z,65.80
2017-08-31T03:15:05.332Z,66.20
2017-08-31T03:17:33.471Z,66.30
2017-08-31T03:20:01.563Z,67.00
2017-08-31T03:22:29.636Z,66.30
2017-08-31T03:24:57.730Z,66.10
2017-08-31T03:27:25.807Z,65.80
2017-08-31T03:29:53.898Z,66.50
2017-08-31T03:32:21.995Z,67.50
2017-08-31T03:34:50.092Z,67.20
2017-08-31T03:37:18.174Z,67.50
2017-08-31T03:39:46.265Z,67.50
2017-08-31T03:42:14.346Z,66.20
2017-08-31T03:44:42.451Z,66.20
2017-08-31T03:47:10.565Z,66.00
2017-08-31T03:49:38.646Z,66.80
2017-08-31T03:52:06.736Z,67.50
2017-08-31T03:54:34.825Z,67.50
2017-08-31T03:57:03.137Z,66.10
2017-08-31T03:59:31.224Z,66.80
2017-08-31T04:01:59.308Z,67.40
2017-08-31T04:04:27.394Z,67.80
2017-08-31T04:06:55.484Z,67.40
2017-08-31T04:09:23.574Z,71.60
2017-08-31T04:11:51.672Z,69.00
2017-08-31T04:14:19.762Z,67.70
2017-08-31T04:16:47.855Z,67.80
2017-08-31T04:19:15.947Z,67.00
2017-08-31T04:21:44.035Z,64.90
2017-08-31T04:24:12.120Z,65.90
2017-08-31T04:26:40.221Z,65.70
2017-08-31T04:29:08.310Z,66.10
2017-08-31T04:31:36.382Z,65.70
2017-08-31T04:34:04.484Z,65.80
2017-08-31T04:36:32.574Z,66.10
2017-08-31T04:39:00.701Z,66.80
2017-08-31T04:41:28.797Z,67.50
2017-08-31T04:43:56.917Z,67.50
2017-08-31T04:46:24.991Z,67.40
2017-08-31T04:48:53.095Z,67.40
2017-08-31T04:51:21.204Z,67.10
2017-08-31T04:53:50.063Z,67.20
2017-08-31T04:56:18.173Z,67.20
2017-08-31T04:58:46.247Z,66.90
2017-08-31T05:01:14.343Z,67.00
2017-08-31T05:03:42.439Z,66.90
2017-08-31T05:06:10.565Z,66.00
2017-08-31T05:08:41.037Z,65.50
2017-08-31T05:11:09.366Z,65.40
2017-08-31T05:13:40.463Z,65.50
2017-08-31T05:16:08.722Z,65.70
2017-08-31T05:18:46.107Z,66.40
2017-08-31T05:21:14.281Z,67.20
2017-08-31T05:29:48.714Z,67.50
2017-08-31T05:32:16.851Z,67.50
2017-08-31T05:34:44.931Z,67.40
2017-08-31T05:37:13.013Z,67.50
2017-08-31T05:39:41.107Z,66.50
2017-08-31T05:42:09.191Z,66.90
2017-08-31T05:44:37.301Z,65.90
2017-08-31T05:47:05.384Z,66.50
2017-08-31T05:49:33.466Z,65.60
2017-08-31T05:54:49.416Z,67.50
2017-08-31T05:57:21.544Z,67.50
2017-08-31T05:59:49.673Z,67.70
2017-08-31T06:02:17.752Z,66.50
2017-08-31T06:04:45.881Z,66.40
2017-08-31T06:07:13.997Z,64.60
2017-08-31T06:09:42.100Z,64.50
2017-08-31T06:12:10.193Z,63.70
2017-08-31T06:14:38.293Z,62.20
2017-08-31T06:17:06.385Z,61.60
2017-08-31T06:19:34.477Z,60.10
2017-08-31T06:22:02.576Z,59.50
2017-08-31T06:24:30.670Z,59.60
2017-08-31T06:26:58.773Z,60.20
2017-08-31T06:29:26.869Z,59.70
2017-08-31T06:31:54.964Z,59.80
2017-08-31T06:34:23.052Z,59.70
2017-08-31T06:36:51.181Z,58.80
2017-08-31T06:39:19.330Z,59.70
2017-08-31T06:41:47.432Z,59.70
2017-08-31T06:44:15.533Z,60.20
2017-08-31T06:46:43.625Z,60.90
2017-08-31T06:49:11.761Z,60.40
2017-08-31T06:51:39.853Z,60.30
2017-08-31T06:54:07.968Z,59.70
2017-08-31T06:56:36.082Z,59.70
2017-08-31T06:59:04.353Z,59.70
2017-08-31T07:01:32.448Z,59.80
2017-08-31T07:04:00.552Z,58.30
2017-08-31T07:06:28.667Z,57.80
2017-08-31T07:08:56.772Z,56.90
2017-08-31T07:11:24.853Z,57.30
2017-08-31T07:13:52.956Z,57.10
2017-08-31T07:16:21.848Z,56.00
2017-08-31T07:18:49.960Z,55.80
2017-08-31T07:21:18.062Z,55.00
2017-08-31T07:23:46.160Z,55.30
2017-08-31T07:26:14.275Z,55.20
2017-08-31T07:28:42.418Z,54.50
2017-08-31T07:31:10.517Z,54.70
2017-08-31T07:33:38.626Z,55.40
2017-08-31T07:36:06.732Z,56.00
2017-08-31T07:38:34.856Z,56.00
2017-08-31T07:41:02.948Z,56.40
2017-08-31T07:43:31.057Z,56.10
2017-08-31T07:45:59.166Z,56.30
2017-08-31T07:48:27.288Z,57.20
2017-08-31T07:50:55.387Z,58.50
2017-08-31T07:53:23.492Z,59.70
2017-08-31T07:55:51.576Z,58.40
2017-08-31T07:58:20.237Z,59.10
2017-08-31T08:00:48.324Z,59.70
2017-08-31T08:03:16.437Z,59.70
2017-08-31T08:05:44.524Z,59.70
2017-08-31T08:08:12.632Z,60.10
2017-08-31T08:10:40.730Z,59.70
2017-08-31T08:13:08.859Z,60.30
2017-08-31T08:15:36.975Z,59.70
2017-08-31T08:18:05.092Z,59.70
2017-08-31T08:20:33.440Z,59.00
2017-08-31T08:23:01.658Z,59.60
2017-08-31T08:25:29.784Z,59.00
2017-08-31T08:27:57.883Z,59.40
2017-08-31T08:30:25.995Z,59.20
2017-08-31T08:32:54.087Z,57.90
2017-08-31T08:35:22.186Z,60.00
2017-08-31T08:37:50.297Z,56.50
2017-08-31T08:40:18.406Z,56.00
2017-08-31T08:42:46.524Z,55.70
2017-08-31T08:45:14.632Z,56.30
2017-08-31T08:47:42.727Z,54.50
2017-08-31T08:50:10.851Z,54.70
2017-08-31T08:52:38.947Z,53.50
2017-08-31T08:55:07.059Z,53.80
2017-08-31T08:57:35.173Z,53.40
2017-08-31T09:00:03.280Z,54.80
2017-08-31T09:02:31.362Z,54.40
2017-08-31T09:04:59.445Z,52.60
2017-08-31T09:07:27.528Z,51.90
2017-08-31T09:09:55.620Z,52.70
2017-08-31T09:12:23.807Z,53.80
2017-08-31T09:14:52.180Z,52.20
2017-08-31T09:17:20.312Z,51.80
2017-08-31T09:19:48.421Z,49.60
2017-08-31T09:22:16.532Z,50.00
2017-08-31T09:24:44.617Z,50.20
2017-08-31T09:27:12.718Z,51.70
2017-08-31T09:29:40.861Z,49.20
2017-08-31T09:32:08.924Z,49.00
2017-08-31T09:34:37.012Z,47.10
2017-08-31T09:37:05.100Z,47.00
2017-08-31T09:39:33.255Z,47.60
2017-08-31T09:42:01.607Z,46.80
2017-08-31T09:44:29.737Z,45.70
2017-08-31T09:46:57.853Z,43.50
2017-08-31T09:49:25.981Z,44.30
2017-08-31T09:51:54.082Z,44.40
2017-08-31T09:54:22.173Z,45.70
2017-08-31T09:56:50.268Z,45.60
2017-08-31T09:59:18.347Z,45.70
2017-08-31T10:01:46.492Z,46.10
2017-08-31T10:04:14.593Z,46.90
2017-08-31T10:06:42.692Z,46.90
2017-08-31T10:09:10.783Z,46.50
2017-08-31T10:11:38.872Z,46.00
2017-08-31T10:14:06.961Z,45.90
2017-08-31T10:16:35.075Z,45.50
2017-08-31T10:19:03.201Z,45.80
2017-08-31T10:21:31.305Z,45.80
2017-08-31T10:23:59.432Z,45.90
2017-08-31T10:26:27.584Z,44.90
2017-08-31T10:28:55.669Z,44.70
2017-08-31T10:31:23.764Z,45.00
2017-08-31T10:33:51.869Z,44.20
2017-08-31T10:36:19.964Z,44.30
2017-08-31T10:38:48.296Z,45.20
2017-08-31T10:41:16.422Z,45.10
2017-08-31T10:43:44.637Z,44.70
2017-08-31T10:46:12.788Z,43.90
2017-08-31T10:48:41.018Z,43.80
2017-08-31T10:51:09.170Z,43.30
2017-08-31T10:53:37.265Z,42.70
2017-08-31T10:56:05.432Z,42.90
2017-08-31T10:58:33.608Z,41.60
2017-08-31T11:01:01.788Z,41.00
2017-08-31T11:03:29.874Z,40.70
2017-08-31T11:05:58.011Z,40.60
2017-08-31T11:08:26.100Z,40.90
2017-08-31T11:10:54.229Z,41.10
2017-08-31T11:13:22.408Z,40.70
2017-08-31T11:15:50.516Z,41.20
2017-08-31T11:18:18.612Z,41.10
2017-08-31T11:20:46.725Z,41.00
2017-08-31T11:23:14.795Z,41.00
2017-08-31T11:25:42.879Z,42.00
2017-08-31T11:28:10.961Z,41.90
2017-08-31T11:30:40.041Z,41.80
2017-08-31T11:33:08.111Z,42.80
2017-08-31T11:35:36.167Z,42.70
2017-08-31T11:38:04.787Z,43.20
2017-08-31T11:40:32.851Z,44.40
2017-08-31T11:43:01.293Z,44.30
2017-08-31T11:45:29.419Z,44.70
2017-08-31T11:47:57.653Z,45.60
2017-08-31T11:50:25.884Z,45.50
2017-08-31T11:52:54.073Z,42.60
2017-08-31T11:55:22.201Z,44.00
2017-08-31T11:57:50.335Z,44.50
2017-08-31T12:00:18.593Z,44.30
2017-08-31T12:02:46.823Z,43.80
2017-08-31T12:05:14.948Z,42.40
2017-08-31T12:07:43.141Z,43.40
2017-08-31T12:10:11.284Z,42.60
2017-08-31T12:12:39.396Z,43.80
2017-08-31T12:15:07.552Z,44.50
2017-08-31T12:17:35.680Z,44.90
2017-08-31T12:20:03.856Z,45.80
2017-08-31T12:22:31.973Z,45.50
2017-08-31T12:25:00.101Z,45.70
2017-08-31T12:27:28.245Z,46.90
2017-08-31T12:29:56.460Z,46.60
2017-08-31T12:32:24.585Z,46.70
2017-08-31T12:34:52.727Z,46.60
2017-08-31T12:37:20.889Z,47.40
2017-08-31T12:39:48.993Z,47.70
2017-08-31T12:42:17.598Z,47.50
2017-08-31T12:44:45.736Z,46.30
2017-08-31T12:47:13.947Z,47.10
2017-08-31T16:19:32.237Z,47.20
2017-08-31T16:22:00.337Z,47.90
2017-08-31T16:24:28.410Z,47.70
2017-08-31T16:26:56.532Z,48.10
2017-08-31T16:29:24.618Z,48.00
2017-08-31T16:31:52.771Z,48.60
2017-08-31T16:34:20.860Z,47.90
2017-08-31T18:01:27.705Z,53.00
2017-08-31T18:03:55.805Z,54.40
2017-08-31T18:06:23.903Z,54.60
2017-08-31T18:08:51.975Z,54.90
2017-08-31T18:11:20.047Z,54.80
2017-08-31T18:13:48.142Z,54.60
2017-08-31T18:16:16.214Z,53.70
2017-08-31T18:18:44.315Z,53.50
2017-08-31T18:21:12.409Z,53.50
2017-08-31T18:23:40.480Z,53.90
2017-08-31T18:26:08.564Z,55.10
2017-08-31T18:28:36.650Z,55.00
2017-08-31T18:31:18.538Z,56.40
2017-08-31T18:36:35.288Z,56.20
2017-08-31T18:39:22.956Z,56.20
2017-08-31T18:42:21.015Z,56.40
2017-08-31T18:44:55.176Z,56.40
2017-08-31T18:47:26.388Z,55.50
2017-08-31T18:50:07.984Z,55.60
2017-08-31T18:52:37.878Z,56.90
2017-08-31T18:55:08.037Z,55.50
2017-08-31T18:57:38.559Z,55.00
2017-08-31T19:00:07.236Z,55.40
2017-08-31T19:02:35.622Z,55.50
2017-08-31T19:05:03.735Z,55.90
2017-08-31T19:07:31.928Z,56.20
2017-08-31T19:10:00.104Z,55.60
2017-08-31T19:12:28.225Z,55.20
2017-08-31T19:14:56.417Z,55.10
2017-08-31T19:17:24.791Z,55.10
2017-08-31T19:19:53.034Z,55.20
2017-08-31T19:22:21.223Z,54.60
2017-08-31T19:24:49.531Z,55.40
2017-08-31T19:27:17.943Z,53.90
2017-08-31T19:29:46.270Z,54.20
2017-08-31T19:32:14.424Z,54.70
2017-08-31T19:34:42.675Z,55.30
2017-08-31T19:37:10.898Z,55.50
2017-08-31T19:39:39.049Z,55.40
2017-08-31T19:42:07.271Z,54.30
2017-08-31T19:44:35.456Z,54.90
2017-08-31T19:47:04.160Z,54.40
2017-08-31T19:49:33.175Z,54.30
2017-08-31T19:52:01.392Z,53.80
2017-08-31T19:54:29.558Z,55.50
2017-08-31T19:56:57.737Z,56.00
2017-08-31T19:59:25.973Z,56.10
2017-08-31T20:01:54.137Z,56.50
2017-08-31T20:04:23.107Z,56.50
2017-08-31T20:06:51.320Z,56.80
2017-08-31T20:09:19.555Z,55.70
2017-08-31T20:11:47.732Z,55.60
2017-08-31T20:14:15.949Z,55.70
2017-08-31T20:16:44.188Z,55.80
2017-08-31T20:19:12.393Z,55.40
2017-08-31T20:21:40.545Z,56.50
2017-08-31T20:24:08.762Z,56.50
2017-08-31T20:26:36.980Z,56.50
2017-08-31T20:29:05.197Z,55.30
2017-08-31T20:31:33.376Z,54.60
2017-08-31T20:34:01.612Z,54.90
2017-08-31T20:36:29.809Z,55.30
2017-08-31T20:38:58.061Z,54.30
2017-08-31T20:41:26.311Z,54.20
2017-08-31T20:43:54.473Z,54.00
2017-08-31T20:46:22.693Z,53.40
2017-08-31T20:48:50.890Z,52.90
2017-08-31T20:51:19.084Z,53.00
2017-08-31T20:53:47.244Z,52.80
2017-08-31T20:56:15.368Z,52.80
2017-08-31T20:58:43.517Z,53.10
2017-08-31T21:01:11.669Z,52.80
2017-08-31T21:03:39.826Z,53.40
2017-08-31T21:06:08.021Z,53.70
2017-08-31T21:08:36.170Z,53.80
2017-08-31T21:13:38.911Z,53.80
2017-08-31T21:16:07.009Z,53.90
2017-08-31T21:18:35.081Z,53.70
2017-08-31T21:21:03.199Z,53.10
2017-08-31T21:23:31.263Z,52.90
2017-08-31T21:25:59.372Z,53.00
2017-08-31T21:28:27.439Z,53.30
2017-08-31T21:30:55.526Z,52.90
2017-08-31T21:33:23.607Z,53.60
2017-08-31T21:35:51.675Z,53.00
2017-08-31T21:38:19.743Z,52.90
2017-08-31T21:40:49.026Z,53.20
2017-08-31T21:43:17.226Z,53.40
2017-08-31T21:45:45.341Z,52.90
2017-08-31T21:48:13.506Z,52.70
2017-08-31T21:50:41.617Z,52.90
2017-08-31T21:53:09.723Z,52.80
2017-08-31T21:55:37.855Z,53.00
2017-08-31T21:58:05.992Z,52.50
2017-08-31T22:00:34.098Z,52.50
2017-08-31T22:03:02.207Z,52.60
2017-08-31T22:05:30.301Z,53.20
2017-08-31T22:07:58.469Z,53.30
2017-08-31T22:10:26.574Z,53.40
2017-08-31T22:12:54.698Z,53.80
2017-08-31T22:15:22.861Z,54.20
2017-08-31T22:17:50.973Z,54.20
2017-08-31T22:20:19.084Z,54.10
2017-08-31T22:22:47.252Z,54.30
2017-08-31T22:25:15.352Z,54.40
2017-08-31T22:27:43.461Z,55.20
2017-08-31T22:30:11.573Z,54.60
2017-08-31T22:32:39.725Z,54.60
2017-08-31T22:35:07.850Z,55.20
2017-08-31T22:37:36.005Z,54.70
2017-08-31T22:40:04.097Z,54.70
2017-08-31T22:42:32.216Z,54.00
2017-08-31T22:45:00.317Z,53.50
2017-08-31T22:47:28.417Z,53.90
2017-08-31T22:49:56.509Z,54.30
2017-08-31T22:52:24.599Z,54.50
2017-08-31T22:54:52.797Z,55.40
2017-08-31T23:00:38.977Z,56.10
2017-08-31T23:03:07.221Z,56.70
2017-08-31T23:05:35.313Z,57.50
2017-08-31T23:08:03.407Z,58.30
2017-08-31T23:10:31.499Z,57.90
2017-08-31T23:13:00.350Z,57.80
2017-08-31T23:15:28.448Z,57.70
2017-08-31T23:17:56.555Z,57.50
2017-08-31T23:20:24.668Z,57.40
2017-08-31T23:22:52.769Z,57.90
2017-08-31T23:25:20.896Z,56.90
2017-08-31T23:27:48.996Z,56.10
2017-08-31T23:30:17.209Z,56.10
2017-08-31T23:32:45.305Z,55.90
2017-08-31T23:35:13.405Z,55.60
2017-08-31T23:37:41.492Z,55.60
2017-08-31T23:40:09.603Z,55.60
2017-08-31T23:42:37.717Z,56.10
2017-08-31T23:45:05.810Z,56.20
2017-08-31T23:47:33.969Z,56.20
2017-08-31T23:50:02.065Z,56.20
2017-08-31T23:52:30.183Z,56.20
2017-08-31T23:54:58.278Z,55.70
2017-08-31T23:57:26.388Z,55.40
2017-08-31T23:59:54.487Z,55.50
